Time;durP1;ratioP1;P1;durP2;ratioP2;P2;SDS_P1;SDS_P2;PMS_P1;PMS_P2;Temp;Humidity;BMP_temperature;BMP_pressure;BME280_temperature;BME280_humidity;BME280_pressure;Samples;Min_cycle;Max_cycle;Signal;HPM_P1;HPM_P2
2022/07/05 00:00:18;;;;;;;;;;;20.90;61.60;;;;;;5059487;28;20278;-72
2022/07/05 00:02:43;;;;;;;;;;;20.90;61.00;;;;;;5048193;28;19954;-72
2022/07/05 00:05:09;;;;;;;;;;;20.90;61.10;;;;;;5050645;28;20347;-72
2022/07/05 00:07:34;;;;;;;;;;;20.90;61.20;;;;;;5065897;28;20407;-72
2022/07/05 00:10:00;;;;;;;;;;;20.80;61.10;;;;;;5065417;28;19959;-72
2022/07/05 00:12:27;;;;;;;;;;;20.80;61.10;;;;;;5064395;28;20077;-72
2022/07/05 00:14:53;;;;;;;;;;;20.80;61.20;;;;;;5065767;28;19912;-72
2022/07/05 00:17:19;;;;;;;;;;;20.70;61.20;;;;;;5064054;28;19916;-72
2022/07/05 00:19:45;;;;;;;;;;;20.70;61.20;;;;;;5065279;28;19923;-72
2022/07/05 00:22:10;;;;;;;;;;;20.70;61.40;;;;;;5064212;28;19912;-72
2022/07/05 00:24:36;;;;;;;;;;;20.70;61.40;;;;;;5065574;28;19995;-72
2022/07/05 00:27:02;;;;;;;;;;;20.60;61.60;;;;;;5065623;28;20707;-72
2022/07/05 00:29:27;;;;;;;;;;;20.60;61.60;;;;;;5065983;28;20399;-72
2022/07/05 00:31:53;;;;;;;;;;;20.60;61.70;;;;;;5065460;28;19912;-72
2022/07/05 00:34:18;;;;;;;;;;;20.50;61.70;;;;;;5065746;28;19913;-72
2022/07/05 00:36:44;;;;;;;;;;;20.50;61.70;;;;;;5050947;28;19920;-72
2022/07/05 00:39:09;;;;;;;;;;;20.50;61.80;;;;;;5049431;28;19916;-72
2022/07/05 00:41:35;;;;;;;;;;;20.50;61.80;;;;;;5046071;28;20600;-72
2022/07/05 00:44:02;;;;;;;;;;;20.40;61.80;;;;;;5045579;28;19913;-72
2022/07/05 00:46:28;;;;;;;;;;;20.40;61.80;;;;;;5045105;28;19921;-72
2022/07/05 00:48:53;;;;;;;;;;;20.40;62.00;;;;;;5046944;28;19919;-72
2022/07/05 00:51:21;;;;;;;;;;;20.30;61.90;;;;;;5046320;28;20457;-72
2022/07/05 00:53:48;;;;;;;;;;;20.30;62.10;;;;;;5046428;28;20436;-72
2022/07/05 00:56:14;;;;;;;;;;;20.30;62.10;;;;;;5045534;28;19967;-72
2022/07/05 00:58:40;;;;;;;;;;;20.30;62.20;;;;;;5048358;28;19916;-72
2022/07/05 01:01:07;;;;;;;;;;;20.20;62.20;;;;;;5065385;28;19923;-72
2022/07/05 01:03:32;;;;;;;;;;;20.20;62.20;;;;;;5064802;28;20404;-72
2022/07/05 01:06:00;;;;;;;;;;;20.20;62.20;;;;;;5065207;28;19923;-72
2022/07/05 01:08:26;;;;;;;;;;;20.20;62.30;;;;;;5062799;28;19913;-72
2022/07/05 01:10:52;;;;;;;;;;;20.20;62.60;;;;;;5065442;28;19966;-72
2022/07/05 01:13:17;;;;;;;;;;;20.10;62.50;;;;;;5065483;28;19938;-72
2022/07/05 01:15:43;;;;;;;;;;;20.10;62.40;;;;;;5064963;28;20003;-72
2022/07/05 01:18:09;;;;;;;;;;;20.10;62.70;;;;;;5064264;28;19917;-72
2022/07/05 01:20:35;;;;;;;;;;;20.10;62.80;;;;;;5063579;28;19916;-72
2022/07/05 01:23:02;;;;;;;;;;;20.00;63.00;;;;;;5046267;28;19966;-72
2022/07/05 01:25:28;;;;;;;;;;;20.00;63.20;;;;;;5046088;28;20443;-72
2022/07/05 01:27:54;;;;;;;;;;;19.90;62.80;;;;;;5046488;28;19919;-72
2022/07/05 01:30:20;;;;;;;;;;;19.90;62.80;;;;;;5060312;28;19909;-72
2022/07/05 01:32:46;;;;;;;;;;;19.90;62.90;;;;;;5055960;28;19920;-72
2022/07/05 01:35:12;;;;;;;;;;;19.90;63.20;;;;;;5049356;28;19922;-72
2022/07/05 01:37:38;;;;;;;;;;;19.90;63.00;;;;;;5064396;28;19912;-72
2022/07/05 01:40:04;;;;;;;;;;;19.90;63.00;;;;;;5063933;28;19923;-72
2022/07/05 01:42:30;;;;;;;;;;;19.80;62.90;;;;;;5064280;28;19920;-72
2022/07/05 01:44:55;;;;;;;;;;;19.80;63.20;;;;;;5064000;28;20288;-72
2022/07/05 01:47:21;;;;;;;;;;;19.80;63.00;;;;;;5064117;28;19913;-72
2022/07/05 01:49:48;;;;;;;;;;;19.80;63.20;;;;;;5062781;28;19916;-72
2022/07/05 01:52:15;;;;;;;;;;;19.80;63.20;;;;;;5062058;28;20482;-72
2022/07/05 01:54:41;;;;;;;;;;;19.70;63.30;;;;;;5047093;28;19913;-72
2022/07/05 01:57:07;;;;;;;;;;;19.70;63.20;;;;;;5044879;28;19994;-72
2022/07/05 01:59:35;;;;;;;;;;;19.70;63.10;;;;;;5051066;28;19923;-72
2022/07/05 02:02:02;;;;;;;;;;;19.70;63.20;;;;;;5064011;28;19920;-72
2022/07/05 02:04:28;;;;;;;;;;;19.70;63.00;;;;;;5063086;28;20011;-72
2022/07/05 02:06:53;;;;;;;;;;;19.70;63.20;;;;;;5063403;28;20011;-72
2022/07/05 02:09:19;;;;;;;;;;;19.60;63.30;;;;;;5063797;28;19919;-72
2022/07/05 02:11:44;;;;;;;;;;;19.70;63.60;;;;;;5060795;28;20602;-72
2022/07/05 02:14:11;;;;;;;;;;;19.60;63.50;;;;;;5049501;28;19920;-72
2022/07/05 02:16:37;;;;;;;;;;;19.60;63.40;;;;;;5054401;28;19916;-72
2022/07/05 02:19:03;;;;;;;;;;;19.60;63.50;;;;;;5045160;28;20335;-72
2022/07/05 02:21:28;;;;;;;;;;;19.60;63.70;;;;;;5045409;28;19948;-72
2022/07/05 02:23:54;;;;;;;;;;;19.60;63.80;;;;;;5045076;28;20370;-72
2022/07/05 02:26:19;;;;;;;;;;;19.50;63.50;;;;;;5043544;28;20043;-72
2022/07/05 02:28:45;;;;;;;;;;;19.50;63.40;;;;;;5046630;28;19913;-72
2022/07/05 02:31:10;;;;;;;;;;;19.50;63.30;;;;;;5063442;28;20401;-72
2022/07/05 02:33:36;;;;;;;;;;;19.50;63.80;;;;;;5063460;28;20591;-72
2022/07/05 02:36:05;;;;;;;;;;;19.50;63.90;;;;;;5055493;28;19913;-72
2022/07/05 02:38:31;;;;;;;;;;;19.40;63.70;;;;;;5047215;28;19913;-72
2022/07/05 02:40:56;;;;;;;;;;;19.40;63.80;;;;;;5044616;28;19920;-72
2022/07/05 02:43:22;;;;;;;;;;;19.40;63.80;;;;;;5045090;28;20589;-72
2022/07/05 02:45:47;;;;;;;;;;;19.40;63.90;;;;;;5045195;28;19931;-72
2022/07/05 02:48:13;;;;;;;;;;;19.40;64.00;;;;;;5043454;28;20488;-72
2022/07/05 02:50:38;;;;;;;;;;;19.40;64.10;;;;;;5045273;28;19912;-72
2022/07/05 02:53:04;;;;;;;;;;;19.40;64.10;;;;;;5045345;28;19909;-72
2022/07/05 02:55:29;;;;;;;;;;;19.40;63.90;;;;;;5045353;28;19955;-72
2022/07/05 02:57:55;;;;;;;;;;;19.30;63.90;;;;;;5044920;28;19986;-72
2022/07/05 03:00:21;;;;;;;;;;;19.30;64.20;;;;;;5059630;28;19966;-72
2022/07/05 03:02:46;;;;;;;;;;;19.30;64.10;;;;;;5063152;28;19912;-72
2022/07/05 03:05:12;;;;;;;;;;;19.30;64.10;;;;;;5059077;28;19965;-72
2022/07/05 03:07:37;;;;;;;;;;;19.30;64.20;;;;;;5044447;28;19912;-72
2022/07/05 03:10:03;;;;;;;;;;;19.20;64.50;;;;;;5044314;28;19912;-72
2022/07/05 03:12:28;;;;;;;;;;;19.20;64.30;;;;;;5048241;28;20019;-72
2022/07/05 03:14:54;;;;;;;;;;;19.20;64.50;;;;;;5044701;28;19913;-72
2022/07/05 03:17:19;;;;;;;;;;;19.20;64.50;;;;;;5043967;28;19951;-72
2022/07/05 03:19:45;;;;;;;;;;;19.20;64.50;;;;;;5044620;28;19966;-72
2022/07/05 03:22:10;;;;;;;;;;;19.20;64.50;;;;;;5044930;28;19920;-72
2022/07/05 03:24:36;;;;;;;;;;;19.20;64.60;;;;;;5044374;28;20289;-72
2022/07/05 03:27:01;;;;;;;;;;;19.10;64.60;;;;;;5062132;28;19966;-72
2022/07/05 03:29:27;;;;;;;;;;;19.10;64.40;;;;;;5062475;28;19913;-72
2022/07/05 03:31:52;;;;;;;;;;;19.10;64.80;;;;;;5062612;28;19916;-72
2022/07/05 03:34:18;;;;;;;;;;;19.10;64.60;;;;;;5062525;28;19959;-72
2022/07/05 03:36:43;;;;;;;;;;;19.10;65.00;;;;;;5062168;28;20198;-72
2022/07/05 03:39:09;;;;;;;;;;;19.00;65.00;;;;;;5051147;28;19917;-72
2022/07/05 03:41:34;;;;;;;;;;;19.10;64.80;;;;;;5041841;28;20007;-72
2022/07/05 03:44:00;;;;;;;;;;;19.00;64.90;;;;;;5042679;28;20409;-72
2022/07/05 03:46:25;;;;;;;;;;;19.00;64.60;;;;;;5042876;28;19924;-72
2022/07/05 03:48:52;;;;;;;;;;;19.00;64.90;;;;;;5043535;28;19912;-72
2022/07/05 03:51:17;;;;;;;;;;;19.00;64.90;;;;;;5041879;28;20368;-72
2022/07/05 03:53:43;;;;;;;;;;;19.00;64.70;;;;;;5043283;28;19912;-72
2022/07/05 03:56:08;;;;;;;;;;;18.90;64.70;;;;;;5043707;28;19912;-72
2022/07/05 03:58:34;;;;;;;;;;;19.00;65.20;;;;;;5052121;28;19912;-72
2022/07/05 04:00:59;;;;;;;;;;;18.90;65.30;;;;;;5062582;28;19908;-72
2022/07/05 04:03:25;;;;;;;;;;;18.90;65.30;;;;;;5048543;28;20797;-72
2022/07/05 04:05:50;;;;;;;;;;;18.90;65.20;;;;;;5052428;28;19920;-72
2022/07/05 04:08:16;;;;;;;;;;;18.90;65.30;;;;;;5062043;28;19973;-72
2022/07/05 04:10:41;;;;;;;;;;;18.90;65.10;;;;;;5053687;28;19931;-72
2022/07/05 04:13:07;;;;;;;;;;;18.90;65.10;;;;;;5060437;28;20012;-72
2022/07/05 04:15:32;;;;;;;;;;;18.90;65.50;;;;;;5045864;28;19927;-72
2022/07/05 04:17:58;;;;;;;;;;;18.80;65.50;;;;;;5045608;28;20328;-72
2022/07/05 04:20:24;;;;;;;;;;;18.80;65.40;;;;;;5047241;28;19995;-72
2022/07/05 04:22:50;;;;;;;;;;;18.80;65.80;;;;;;5047425;28;19917;-72
2022/07/05 04:25:19;;;;;;;;;;;18.80;65.80;;;;;;5047592;28;19917;-72
2022/07/05 04:27:45;;;;;;;;;;;18.80;65.60;;;;;;5045943;28;20007;-72
2022/07/05 04:30:11;;;;;;;;;;;18.80;66.00;;;;;;5048254;28;19920;-72
2022/07/05 04:32:37;;;;;;;;;;;18.80;65.60;;;;;;5047335;28;19919;-72
2022/07/05 04:35:03;;;;;;;;;;;18.80;65.70;;;;;;5049738;28;20124;-72
2022/07/05 04:37:28;;;;;;;;;;;18.80;65.60;;;;;;5065557;28;19999;-72
2022/07/05 04:39:54;;;;;;;;;;;18.70;65.80;;;;;;5051042;28;20007;-72
2022/07/05 04:42:19;;;;;;;;;;;18.70;65.60;;;;;;5049130;28;19912;-72
2022/07/05 04:44:45;;;;;;;;;;;18.70;66.00;;;;;;5046850;28;19939;-72
2022/07/05 04:47:10;;;;;;;;;;;18.70;66.00;;;;;;5046403;28;19993;-72
2022/07/05 04:49:36;;;;;;;;;;;18.70;66.70;;;;;;5045556;28;19923;-72
2022/07/05 04:52:01;;;;;;;;;;;18.70;66.80;;;;;;5047324;28;19959;-72
2022/07/05 04:54:27;;;;;;;;;;;18.70;66.80;;;;;;5046860;28;19921;-72
2022/07/05 04:56:52;;;;;;;;;;;18.60;66.00;;;;;;5046881;28;20030;-72
2022/07/05 04:59:18;;;;;;;;;;;18.70;66.00;;;;;;5047173;28;19966;-72
2022/07/05 05:01:43;;;;;;;;;;;18.70;66.00;;;;;;5065007;28;19944;-72
2022/07/05 05:04:09;;;;;;;;;;;18.60;66.10;;;;;;5064684;28;19938;-72
2022/07/05 05:06:34;;;;;;;;;;;18.60;66.40;;;;;;5058039;28;19981;-72
2022/07/05 05:09:00;;;;;;;;;;;18.60;66.10;;;;;;5046329;28;20405;-72
2022/07/05 05:11:25;;;;;;;;;;;18.60;66.10;;;;;;5061616;28;20007;-72
2022/07/05 05:13:51;;;;;;;;;;;18.60;66.10;;;;;;5064615;28;19985;-72
2022/07/05 05:16:16;;;;;;;;;;;18.60;66.10;;;;;;5064557;28;19966;-72
2022/07/05 05:18:42;;;;;;;;;;;18.60;66.10;;;;;;5064605;28;19986;-72
2022/07/05 05:21:07;;;;;;;;;;;18.60;66.10;;;;;;5064720;28;19916;-72
2022/07/05 05:23:32;;;;;;;;;;;18.60;66.10;;;;;;5064547;28;19944;-72
2022/07/05 05:25:58;;;;;;;;;;;18.70;66.20;;;;;;5063937;28;19912;-72
2022/07/05 05:28:23;;;;;;;;;;;18.60;66.00;;;;;;5064264;28;19913;-72
2022/07/05 05:30:49;;;;;;;;;;;18.60;66.10;;;;;;5064379;28;19916;-72
2022/07/05 05:33:14;;;;;;;;;;;18.70;66.10;;;;;;5045582;28;19912;-72
2022/07/05 05:35:40;;;;;;;;;;;18.60;65.90;;;;;;5052781;28;20619;-72
2022/07/05 05:38:06;;;;;;;;;;;18.60;66.00;;;;;;5059199;28;19923;-72
2022/07/05 05:40:32;;;;;;;;;;;18.60;66.00;;;;;;5051885;28;20381;-72
2022/07/05 05:42:58;;;;;;;;;;;18.60;65.90;;;;;;5045645;28;19913;-72
2022/07/05 05:45:24;;;;;;;;;;;18.70;66.00;;;;;;5045637;28;19970;-72
2022/07/05 05:47:50;;;;;;;;;;;18.60;66.10;;;;;;5043268;28;19917;-72
2022/07/05 05:50:19;;;;;;;;;;;18.60;66.00;;;;;;5045617;28;19917;-72
2022/07/05 05:52:45;;;;;;;;;;;18.70;66.00;;;;;;5049104;28;19912;-72
2022/07/05 05:55:10;;;;;;;;;;;18.70;66.00;;;;;;5045920;28;20285;-72
2022/07/05 05:57:36;;;;;;;;;;;18.70;66.00;;;;;;5045571;28;19940;-72
2022/07/05 06:00:03;;;;;;;;;;;18.70;65.90;;;;;;5051623;28;19957;-72
2022/07/05 06:02:28;;;;;;;;;;;18.70;66.00;;;;;;5063606;28;19913;-72
2022/07/05 06:04:54;;;;;;;;;;;18.70;65.90;;;;;;5057482;28;19913;-72
2022/07/05 06:07:19;;;;;;;;;;;18.70;65.90;;;;;;5063699;28;20525;-72
2022/07/05 06:09:45;;;;;;;;;;;18.70;65.80;;;;;;5063891;28;20603;-72
2022/07/05 06:12:10;;;;;;;;;;;18.70;65.80;;;;;;5064402;28;19912;-72
2022/07/05 06:14:36;;;;;;;;;;;18.80;65.80;;;;;;5057102;28;20548;-72
2022/07/05 06:17:01;;;;;;;;;;;18.80;65.80;;;;;;5062444;28;19920;-72
2022/07/05 06:19:27;;;;;;;;;;;18.80;65.70;;;;;;5063973;28;20037;-72
2022/07/05 06:21:52;;;;;;;;;;;18.80;65.70;;;;;;5063967;28;19931;-72
2022/07/05 06:24:18;;;;;;;;;;;18.80;65.50;;;;;;5063826;28;19919;-72
2022/07/05 06:26:43;;;;;;;;;;;18.80;65.70;;;;;;5063650;28;20494;-72
2022/07/05 06:29:09;;;;;;;;;;;18.80;65.60;;;;;;5060785;28;19923;-72
2022/07/05 06:31:34;;;;;;;;;;;18.80;65.60;;;;;;5063774;28;19992;-72
2022/07/05 06:34:00;;;;;;;;;;;18.80;65.60;;;;;;5062610;28;19931;-72
2022/07/05 06:36:25;;;;;;;;;;;18.80;65.50;;;;;;5061240;28;20289;-72
2022/07/05 06:38:50;;;;;;;;;;;18.80;65.40;;;;;;5054149;28;19917;-72
2022/07/05 06:41:16;;;;;;;;;;;18.80;65.30;;;;;;5059244;28;19947;-72
2022/07/05 06:43:41;;;;;;;;;;;18.90;65.40;;;;;;5063916;28;20511;-72
2022/07/05 06:46:07;;;;;;;;;;;18.90;65.40;;;;;;5061744;28;19920;-72
2022/07/05 06:48:32;;;;;;;;;;;18.90;65.20;;;;;;5064244;28;19913;-72
2022/07/05 06:50:58;;;;;;;;;;;18.90;65.20;;;;;;5043806;28;20069;-72
2022/07/05 06:53:24;;;;;;;;;;;18.90;65.20;;;;;;5042874;28;20021;-72
2022/07/05 06:55:50;;;;;;;;;;;18.90;65.20;;;;;;5042918;28;20601;-72
2022/07/05 06:58:16;;;;;;;;;;;18.90;65.00;;;;;;5062009;28;19946;-72
2022/07/05 07:00:42;;;;;;;;;;;18.90;65.00;;;;;;5063697;28;19912;-72
2022/07/05 07:03:07;;;;;;;;;;;19.00;65.00;;;;;;5062359;28;20358;-72
2022/07/05 07:05:33;;;;;;;;;;;19.00;65.00;;;;;;5062007;28;19920;-72
2022/07/05 07:10:42;;;;;;;;;;;19.00;64.80;;;;;;5058710;28;19985;-72
2022/07/05 07:13:08;;;;;;;;;;;19.00;64.80;;;;;;5063075;28;20368;-72
2022/07/05 07:15:33;;;;;;;;;;;19.00;64.70;;;;;;5044046;28;19913;-72
2022/07/05 07:17:59;;;;;;;;;;;19.00;64.70;;;;;;5055626;28;20308;-72
2022/07/05 07:20:25;;;;;;;;;;;19.00;64.60;;;;;;5049056;28;19970;-72
2022/07/05 07:22:51;;;;;;;;;;;19.00;64.60;;;;;;5044734;28;19913;-72
2022/07/05 07:25:20;;;;;;;;;;;19.00;64.60;;;;;;5044767;28;19916;-72
2022/07/05 07:27:46;;;;;;;;;;;19.00;64.60;;;;;;5059827;28;20503;-72
2022/07/05 07:30:12;;;;;;;;;;;19.10;64.50;;;;;;5053146;28;19912;-72
2022/07/05 07:32:37;;;;;;;;;;;19.10;64.40;;;;;;5062784;28;20341;-72
2022/07/05 07:35:03;;;;;;;;;;;19.10;64.40;;;;;;5062314;28;19970;-72
2022/07/05 07:37:29;;;;;;;;;;;19.20;64.30;;;;;;5062684;28;19917;-72
2022/07/05 07:39:54;;;;;;;;;;;19.10;64.10;;;;;;5049729;28;19935;-72
2022/07/05 07:42:20;;;;;;;;;;;19.10;64.10;;;;;;5061055;28;19909;-72
2022/07/05 07:44:45;;;;;;;;;;;19.20;64.30;;;;;;5062280;28;19916;-72
2022/07/05 07:47:11;;;;;;;;;;;19.10;64.10;;;;;;5062205;28;20023;-72
2022/07/05 07:49:37;;;;;;;;;;;19.10;64.30;;;;;;5063899;28;20350;-72
2022/07/05 07:52:03;;;;;;;;;;;19.10;64.20;;;;;;5066193;28;19920;-72
2022/07/05 07:54:28;;;;;;;;;;;19.10;64.20;;;;;;5066418;28;19912;-72
2022/07/05 07:56:54;;;;;;;;;;;19.20;64.00;;;;;;5065990;28;19908;-72
2022/07/05 07:59:19;;;;;;;;;;;19.30;63.90;;;;;;5066265;28;20523;-72
2022/07/05 08:01:45;;;;;;;;;;;19.30;63.70;;;;;;5066545;28;19919;-72
2022/07/05 08:04:11;;;;;;;;;;;19.30;63.70;;;;;;5066294;28;19920;-72
2022/07/05 08:06:37;;;;;;;;;;;19.40;63.60;;;;;;5065956;28;19963;-72
2022/07/05 08:09:02;;;;;;;;;;;19.40;63.50;;;;;;5066307;28;20436;-72
2022/07/05 08:11:28;;;;;;;;;;;19.40;63.40;;;;;;5063207;28;19912;-72
2022/07/05 08:13:53;;;;;;;;;;;19.50;63.40;;;;;;5045799;28;19956;-72
2022/07/05 08:16:19;;;;;;;;;;;19.50;63.30;;;;;;5047439;28;19912;-72
2022/07/05 08:21:31;;;;;;;;;;;19.60;63.30;;;;;;5060940;28;19919;-72
2022/07/05 08:24:23;;;;;;;;;;;19.70;63.10;;;;;;5065944;28;19912;-72
2022/07/05 08:26:48;;;;;;;;;;;19.80;62.90;;;;;;5064339;28;20039;-72
2022/07/05 08:29:14;;;;;;;;;;;19.80;62.70;;;;;;5065581;28;19999;-72
2022/07/05 08:31:42;;;;;;;;;;;19.80;62.60;;;;;;5066031;28;20592;-72
2022/07/05 08:34:07;;;;;;;;;;;19.90;62.40;;;;;;5065921;28;19912;-72
2022/07/05 08:36:33;;;;;;;;;;;19.90;62.40;;;;;;5065515;28;19919;-72
2022/07/05 08:38:58;;;;;;;;;;;20.00;62.40;;;;;;5056605;28;20007;-72
2022/07/05 08:41:24;;;;;;;;;;;20.00;62.40;;;;;;5062378;28;19924;-72
2022/07/05 08:43:51;;;;;;;;;;;20.10;62.30;;;;;;5065176;28;19947;-72
2022/07/05 08:46:17;;;;;;;;;;;20.10;62.20;;;;;;5065077;28;20441;-72
2022/07/05 08:48:44;;;;;;;;;;;20.20;62.10;;;;;;5065486;28;19916;-72
2022/07/05 08:51:09;;;;;;;;;;;20.30;61.80;;;;;;5065279;28;19989;-72
2022/07/05 08:53:35;;;;;;;;;;;20.40;61.70;;;;;;5065100;28;20412;-72
2022/07/05 08:56:01;;;;;;;;;;;20.50;61.50;;;;;;5065034;28;19916;-72
2022/07/05 08:58:26;;;;;;;;;;;20.50;61.10;;;;;;5064987;28;19916;-72
2022/07/05 09:00:52;;;;;;;;;;;20.60;61.20;;;;;;5056643;28;20299;-72
2022/07/05 09:03:19;;;;;;;;;;;20.60;61.20;;;;;;5045725;28;19913;-72
2022/07/05 09:05:44;;;;;;;;;;;20.60;61.20;;;;;;5054647;28;19912;-72
2022/07/05 09:08:14;;;;;;;;;;;20.60;61.20;;;;;;5065057;28;19912;-73
2022/07/05 09:10:42;;;;;;;;;;;20.60;61.40;;;;;;5063331;28;19909;-72
2022/07/05 09:13:07;;;;;;;;;;;20.60;61.40;;;;;;5046352;28;19919;-72
2022/07/05 09:15:32;;;;;;;;;;;20.60;61.60;;;;;;5051758;28;20696;-72
2022/07/05 09:17:58;;;;;;;;;;;20.70;61.50;;;;;;5046118;28;19913;-73
2022/07/05 09:20:26;;;;;;;;;;;20.70;61.30;;;;;;5046314;28;19954;-73
2022/07/05 09:22:52;;;;;;;;;;;20.70;61.20;;;;;;5046100;28;19913;-73
2022/07/05 09:25:21;;;;;;;;;;;20.80;61.10;;;;;;5044518;28;20599;-72
2022/07/05 09:27:51;;;;;;;;;;;20.80;60.80;;;;;;5044252;28;19971;-73
2022/07/05 09:30:28;;;;;;;;;;;20.90;60.90;;;;;;5047470;28;19923;-73
2022/07/05 09:33:03;;;;;;;;;;;20.90;60.80;;;;;;5057451;28;20437;-73
2022/07/05 09:35:29;;;;;;;;;;;20.90;60.90;;;;;;5064260;28;20619;-72
2022/07/05 09:37:54;;;;;;;;;;;20.90;60.90;;;;;;5063595;28;19962;-72
2022/07/05 09:40:20;;;;;;;;;;;21.00;60.60;;;;;;5053175;28;20548;-73
2022/07/05 09:42:46;;;;;;;;;;;21.10;60.60;;;;;;5064824;28;20389;-73
2022/07/05 09:45:11;;;;;;;;;;;21.20;60.40;;;;;;5064373;28;19998;-72
2022/07/05 09:47:37;;;;;;;;;;;21.30;60.00;;;;;;5063770;28;19912;-73
2022/07/05 09:50:06;;;;;;;;;;;21.40;60.10;;;;;;5064070;28;19913;-73
2022/07/05 09:52:33;;;;;;;;;;;21.50;59.70;;;;;;5045537;28;19913;-73
2022/07/05 09:55:02;;;;;;;;;;;21.50;59.70;;;;;;5045606;28;19912;-73
2022/07/05 09:57:28;;;;;;;;;;;21.40;59.70;;;;;;5063196;28;20392;-72
2022/07/05 10:00:01;;;;;;;;;;;21.30;59.70;;;;;;5064061;28;19916;-73
2022/07/05 10:02:37;;;;;;;;;;;21.30;60.20;;;;;;5064515;28;20310;-73
2022/07/05 10:05:16;;;;;;;;;;;21.40;59.80;;;;;;5064229;28;19913;-73
2022/07/05 10:07:45;;;;;;;;;;;21.40;60.00;;;;;;5064388;28;19918;-73
2022/07/05 10:10:22;;;;;;;;;;;21.30;59.50;;;;;;5060979;28;19916;-73
2022/07/05 10:12:48;;;;;;;;;;;21.40;59.70;;;;;;5059413;28;20746;-73
2022/07/05 10:15:15;;;;;;;;;;;21.50;59.50;;;;;;5047753;28;20005;-73
2022/07/05 10:17:58;;;;;;;;;;;21.50;59.80;;;;;;5045416;28;19959;-73
2022/07/05 10:20:24;;;;;;;;;;;21.60;59.80;;;;;;5045467;28;19970;-73
2022/07/05 10:22:51;;;;;;;;;;;21.70;59.40;;;;;;5044480;28;19917;-73
2022/07/05 10:25:16;;;;;;;;;;;21.80;58.70;;;;;;5045613;28;20651;-74
2022/07/05 10:27:42;;;;;;;;;;;21.90;59.20;;;;;;5045225;28;19921;-74
2022/07/05 10:30:08;;;;;;;;;;;22.00;58.40;;;;;;5049047;28;20023;-74
2022/07/05 10:32:35;;;;;;;;;;;22.00;58.70;;;;;;5045665;28;19919;-73
2022/07/05 10:35:02;;;;;;;;;;;21.90;59.10;;;;;;5047514;28;19913;-73
2022/07/05 10:37:29;;;;;;;;;;;21.90;59.30;;;;;;5046087;28;19921;-73
2022/07/05 10:39:55;;;;;;;;;;;21.90;59.10;;;;;;5062522;28;19923;-73
2022/07/05 10:42:22;;;;;;;;;;;21.90;58.90;;;;;;5062006;28;20576;-73
2022/07/05 10:44:47;;;;;;;;;;;21.90;59.10;;;;;;5063638;28;19924;-73
2022/07/05 10:47:13;;;;;;;;;;;22.00;59.10;;;;;;5062235;28;19916;-74
2022/07/05 10:49:39;;;;;;;;;;;22.10;58.40;;;;;;5054872;28;20015;-73
2022/07/05 10:52:05;;;;;;;;;;;22.20;57.40;;;;;;5045542;28;19959;-74
2022/07/05 10:54:31;;;;;;;;;;;22.30;58.60;;;;;;5045333;28;19966;-74
2022/07/05 10:57:15;;;;;;;;;;;22.30;57.90;;;;;;5044686;28;19920;-74
2022/07/05 11:00:00;;;;;;;;;;;22.40;57.60;;;;;;5044429;28;19919;-74
2022/07/05 11:02:25;;;;;;;;;;;22.60;57.90;;;;;;5055010;28;20342;-74
2022/07/05 11:04:55;;;;;;;;;;;22.70;57.60;;;;;;5046153;28;19932;-74
2022/07/05 11:07:39;;;;;;;;;;;22.80;58.20;;;;;;5063176;28;20413;-74
2022/07/05 11:10:06;;;;;;;;;;;22.90;57.40;;;;;;5055206;28;20007;-74
2022/07/05 11:12:36;;;;;;;;;;;22.90;57.30;;;;;;5060842;28;19919;-74
2022/07/05 11:15:06;;;;;;;;;;;22.90;57.50;;;;;;5045081;28;19919;-74
2022/07/05 11:17:32;;;;;;;;;;;22.80;57.70;;;;;;5044669;28;19924;-73
2022/07/05 11:19:57;;;;;;;;;;;22.80;57.70;;;;;;5044675;28;20333;-74
2022/07/05 11:22:23;;;;;;;;;;;22.80;57.50;;;;;;5049028;28;19947;-74
2022/07/05 11:24:49;;;;;;;;;;;22.80;57.80;;;;;;5045944;28;19916;-74
2022/07/05 11:27:14;;;;;;;;;;;23.00;56.80;;;;;;5046545;28;19912;-75
2022/07/05 11:29:49;;;;;;;;;;;23.10;57.40;;;;;;5049893;28;19970;-74
2022/07/05 11:32:17;;;;;;;;;;;23.20;56.50;;;;;;5048536;28;19913;-74
2022/07/05 11:34:43;;;;;;;;;;;23.40;57.30;;;;;;5048206;28;19913;-76
2022/07/05 11:37:34;;;;;;;;;;;23.40;56.60;;;;;;5047396;28;19919;-75
2022/07/05 11:40:05;;;;;;;;;;;23.60;56.90;;;;;;5064141;28;19924;-75
2022/07/05 11:42:31;;;;;;;;;;;23.70;56.70;;;;;;5066338;28;19912;-75
2022/07/05 11:44:57;;;;;;;;;;;23.70;56.40;;;;;;5066041;28;20051;-75
2022/07/05 11:47:23;;;;;;;;;;;23.90;57.20;;;;;;5066893;28;20429;-75
2022/07/05 11:49:57;;;;;;;;;;;23.90;56.00;;;;;;5066899;28;20420;-75
2022/07/05 11:52:27;;;;;;;;;;;23.90;56.00;;;;;;5065768;28;20709;-74
2022/07/05 11:54:53;;;;;;;;;;;23.90;55.50;;;;;;5066722;28;20639;-74
2022/07/05 11:57:19;;;;;;;;;;;24.00;56.10;;;;;;5066485;28;19912;-75
2022/07/05 11:59:45;;;;;;;;;;;24.10;56.20;;;;;;5065746;28;19981;-74
2022/07/05 12:02:11;;;;;;;;;;;24.20;55.20;;;;;;5081255;28;19913;-74
2022/07/05 12:04:36;;;;;;;;;;;24.10;55.80;;;;;;5065401;28;19965;-74
2022/07/05 12:07:02;;;;;;;;;;;24.20;56.20;;;;;;5048882;28;19913;-74
2022/07/05 12:12:42;;;;;;;;;;;24.10;55.60;;;;;;5048752;28;19948;-74
2022/07/05 12:15:06;;;;;;;;;;;24.30;55.80;;;;;;5066914;28;20292;-75
2022/07/05 12:17:33;;;;;;;;;;;24.40;55.70;;;;;;5063780;28;19913;-74
2022/07/05 12:19:58;;;;;;;;;;;24.50;55.00;;;;;;5048335;28;19944;-75
2022/07/05 12:22:28;;;;;;;;;;;24.60;55.50;;;;;;5046723;28;20368;-75
2022/07/05 12:24:54;;;;;;;;;;;24.80;55.40;;;;;;5048146;28;19913;-75
2022/07/05 12:27:19;;;;;;;;;;;24.90;54.90;;;;;;5060804;28;19914;-75
2022/07/05 12:29:45;;;;;;;;;;;24.90;54.70;;;;;;5052800;28;20162;-75
2022/07/05 12:32:10;;;;;;;;;;;24.90;54.40;;;;;;5060005;28;19912;-75
2022/07/05 12:34:36;;;;;;;;;;;25.00;54.80;;;;;;5046886;28;20504;-75
2022/07/05 12:37:02;;;;;;;;;;;24.90;54.50;;;;;;5055760;28;19911;-75
2022/07/05 12:39:27;;;;;;;;;;;25.00;55.20;;;;;;5064314;28;20385;-75
2022/07/05 12:41:55;;;;;;;;;;;25.10;54.90;;;;;;5059218;28;20089;-75
2022/07/05 12:44:21;;;;;;;;;;;25.10;55.20;;;;;;5053168;28;19927;-74
2022/07/05 12:46:49;;;;;;;;;;;25.10;53.60;;;;;;5046590;28;19929;-74
2022/07/05 12:49:14;;;;;;;;;;;25.00;54.30;;;;;;5047377;28;20616;-74
2022/07/05 12:51:41;;;;;;;;;;;25.00;55.10;;;;;;5047929;28;19920;-74
2022/07/05 12:59:36;;;;;;;;;;;25.10;54.70;;;;;;5065997;28;19981;-75
2022/07/05 13:02:02;;;;;;;;;;;25.20;55.20;;;;;;5050776;28;20523;-75
2022/07/05 13:04:28;;;;;;;;;;;25.20;54.60;;;;;;5048074;28;19920;-75
2022/07/05 13:06:58;;;;;;;;;;;25.10;54.60;;;;;;5047273;28;19916;-75
2022/07/05 13:09:32;;;;;;;;;;;25.00;54.80;;;;;;5046892;28;19919;-74
2022/07/05 13:12:24;;;;;;;;;;;25.00;55.20;;;;;;5046779;28;19959;-74
2022/07/05 13:14:51;;;;;;;;;;;24.90;55.10;;;;;;5063625;28;19912;-74
2022/07/05 13:17:17;;;;;;;;;;;24.90;54.80;;;;;;5064575;28;19919;-74
2022/07/05 13:19:44;;;;;;;;;;;25.00;54.90;;;;;;5065576;28;20085;-74
2022/07/05 13:22:09;;;;;;;;;;;24.90;53.20;;;;;;5052395;28;19920;-74
2022/07/05 13:24:35;;;;;;;;;;;24.90;55.20;;;;;;5047475;28;19916;-75
2022/07/05 13:27:01;;;;;;;;;;;25.00;55.10;;;;;;5047302;28;19966;-74
2022/07/05 13:29:27;;;;;;;;;;;25.10;54.70;;;;;;5048914;28;20004;-74
2022/07/05 13:31:52;;;;;;;;;;;25.20;54.50;;;;;;5048472;28;20121;-74
2022/07/05 13:34:18;;;;;;;;;;;25.40;54.00;;;;;;5046042;28;20411;-75
2022/07/05 13:36:44;;;;;;;;;;;25.50;54.00;;;;;;5061583;28;19921;-74
2022/07/05 13:39:10;;;;;;;;;;;25.60;54.30;;;;;;5055495;28;20596;-75
2022/07/05 13:41:36;;;;;;;;;;;25.70;53.70;;;;;;5063713;28;19987;-75
2022/07/05 13:44:01;;;;;;;;;;;25.70;54.30;;;;;;5065442;28;19975;-75
2022/07/05 13:46:27;;;;;;;;;;;25.90;53.60;;;;;;5064926;28;19920;-75
2022/07/05 13:48:53;;;;;;;;;;;25.90;53.70;;;;;;5064916;28;19918;-75
2022/07/05 13:51:18;;;;;;;;;;;25.90;53.60;;;;;;5065376;28;19919;-75
2022/07/05 13:53:44;;;;;;;;;;;25.90;53.50;;;;;;5063725;28;20023;-75
2022/07/05 13:56:09;;;;;;;;;;;25.90;53.00;;;;;;5064571;28;20424;-75
2022/07/05 13:58:35;;;;;;;;;;;26.00;53.90;;;;;;5050986;28;19967;-75
2022/07/05 14:01:01;;;;;;;;;;;26.00;53.50;;;;;;5058869;28;19917;-74
2022/07/05 14:03:26;;;;;;;;;;;25.90;53.30;;;;;;5065204;28;19913;-74
2022/07/05 14:05:52;;;;;;;;;;;25.80;54.00;;;;;;5063282;28;19913;-74
2022/07/05 14:08:23;;;;;;;;;;;25.80;53.90;;;;;;5052687;28;19913;-75
2022/07/05 14:10:51;;;;;;;;;;;25.90;53.20;;;;;;5065693;28;19915;-78
2022/07/05 14:13:20;;;;;;;;;;;26.00;53.30;;;;;;5058501;28;19912;-77
2022/07/05 14:15:47;;;;;;;;;;;26.00;54.70;;;;;;5046910;28;19920;-78
2022/07/05 14:18:13;;;;;;;;;;;26.00;54.60;;;;;;5058472;28;19915;-77
2022/07/05 14:20:39;;;;;;;;;;;25.90;54.10;;;;;;5054686;28;19916;-75
2022/07/05 14:23:04;;;;;;;;;;;25.80;54.50;;;;;;5064164;28;19919;-77
2022/07/05 14:25:30;;;;;;;;;;;25.70;53.70;;;;;;5063723;28;19923;-74